Darstellungsparameter: Aktuell verwendete Einstellungen:
Skalierung der Graphiken ... ?
xyx+y,   Skalierungsfaktor:      Skalierung: Modus: x, Faktor: 1
Darstellungszeitraum ... ?
Vom - - bis: - -   Zeitraum: 04.12.2019 - 05.12.2019
Min/Max/Avg-Anzeige ... ?
Zeige MMA aktuell
Zeige MMA Monat
Zeige MMA alles
Zeige --A aktuell
Zeige --A Monat
Zeige --A alles
Keine MMA-Anzeige
MMA:
Keine MMA-Graphiken
MMA-Basis: 04.12.2019 - 05.12.2019
Quicknavigation für Darstellung... ?
Tage:      1T, 2T, 3T, 5T -1T -2T -3T -5T +1T +2T +3T +5T
Wochen: 1W, 2W, 3W -1W -2W -3W +1W +2W +3W
Monate: 1M, 3M, 6M -1M -3M -6M +1M +3M +6M
Jahre:    1J, 3J, 5J, 10J -1J -3J -5J -10J +1J +3J +5J +10J
Nutze für die Darstellung ... ?
Originaldaten oder Mittelwerte auf ...
Stundenbasis Tagesbasis Wochenbasis
Monatsbasis Jahresbasis      Datenbasis: Original-Daten
Darstellen als:
Statistik (Auto) Statistik J:M      Darstellung:
Zur Graphik,    zurück zur Übersicht aller Sensoren.
 
Tabellarische Datenbersicht: ?
 
Sensor: Nr:Datum:Temp:Feuchte:Taupunkt:
Aussen-T/F 1 04-12-2019 00:00:00 3.2 C 95 % 2.48 C
2 04-12-2019 00:05:00 3.2 C 96 % 2.63 C
3 04-12-2019 00:10:00 3 C 95 % 2.28 C
4 04-12-2019 00:15:00 2.8 C 95 % 2.08 C
5 04-12-2019 00:20:00 2.6 C 95 % 1.88 C
6 04-12-2019 00:25:00 2.4 C 95 % 1.68 C
7 04-12-2019 00:30:00 2.3 C 95 % 1.58 C
8 04-12-2019 00:35:00 2.1 C 95 % 1.38 C
9 04-12-2019 00:40:00 2 C 95 % 1.29 C
10 04-12-2019 00:45:00 1.9 C 95 % 1.19 C
11 04-12-2019 00:50:00 1.8 C 95 % 1.09 C
12 04-12-2019 00:55:00 1.7 C 95 % 0.99 C
13 04-12-2019 01:00:00 1.6 C 95 % 0.89 C
14 04-12-2019 01:05:00 1.5 C 95 % 0.79 C
15 04-12-2019 01:10:00 1.4 C 95 % 0.69 C
16 04-12-2019 01:15:00 1.4 C 95 % 0.69 C
17 04-12-2019 01:20:00 1.3 C 95 % 0.59 C
18 04-12-2019 01:25:00 1.2 C 95 % 0.49 C
19 04-12-2019 01:30:00 1.2 C 96 % 0.63 C
20 04-12-2019 01:35:00 1.2 C 96 % 0.63 C
21 04-12-2019 01:40:00 1.1 C 96 % 0.54 C
22 04-12-2019 01:45:00 1.1 C 96 % 0.54 C
23 04-12-2019 01:50:00 1 C 96 % 0.44 C
24 04-12-2019 01:55:00 0.9 C 96 % 0.34 C
25 04-12-2019 02:00:00 0.9 C 96 % 0.34 C
Sensor: Nr:Datum:Temp:Feuchte:Taupunkt:
Aussen-T/F 26 04-12-2019 02:05:00 0.9 C 96 % 0.34 C
27 04-12-2019 02:10:00 0.8 C 96 % 0.24 C
28 04-12-2019 02:15:00 0.8 C 96 % 0.24 C
29 04-12-2019 02:20:00 0.8 C 96 % 0.24 C
30 04-12-2019 02:25:00 0.8 C 96 % 0.24 C
31 04-12-2019 02:30:00 0.9 C 96 % 0.34 C
32 04-12-2019 02:35:00 0.8 C 96 % 0.24 C
33 04-12-2019 02:40:00 0.9 C 96 % 0.34 C
34 04-12-2019 02:45:00 1 C 96 % 0.44 C
35 04-12-2019 02:50:00 1.1 C 96 % 0.54 C
36 04-12-2019 02:55:00 1.2 C 96 % 0.63 C
37 04-12-2019 03:00:00 1.3 C 97 % 0.88 C
38 04-12-2019 03:05:00 1.3 C 97 % 0.88 C
39 04-12-2019 03:10:00 1.4 C 97 % 0.98 C
40 04-12-2019 03:15:00 1.6 C 97 % 1.18 C
41 04-12-2019 03:20:00 1.7 C 97 % 1.28 C
42 04-12-2019 03:25:00 1.7 C 97 % 1.28 C
43 04-12-2019 03:30:00 1.7 C 97 % 1.28 C
44 04-12-2019 03:35:00 1.8 C 97 % 1.38 C
45 04-12-2019 03:40:00 1.8 C 97 % 1.38 C
46 04-12-2019 03:45:00 1.8 C 97 % 1.38 C
47 04-12-2019 03:50:00 1.8 C 97 % 1.38 C
48 04-12-2019 03:55:00 1.8 C 97 % 1.38 C
49 04-12-2019 04:00:00 1.8 C 97 % 1.38 C
50 04-12-2019 04:05:00 1.8 C 97 % 1.38 C
Sensor: Nr:Datum:Temp:Feuchte:Taupunkt:
Aussen-T/F 51 04-12-2019 04:10:00 1.8 C 97 % 1.38 C
52 04-12-2019 04:15:00 1.8 C 97 % 1.38 C
53 04-12-2019 04:20:00 1.8 C 97 % 1.38 C
54 04-12-2019 04:25:00 1.7 C 97 % 1.28 C
55 04-12-2019 04:30:00 1.7 C 97 % 1.28 C
56 04-12-2019 04:35:00 1.7 C 97 % 1.28 C
57 04-12-2019 04:40:00 1.7 C 97 % 1.28 C
58 04-12-2019 04:45:00 1.7 C 97 % 1.28 C
59 04-12-2019 04:50:00 1.7 C 97 % 1.28 C
60 04-12-2019 04:55:00 1.7 C 97 % 1.28 C
61 04-12-2019 05:00:00 1.7 C 97 % 1.28 C
62 04-12-2019 05:05:00 1.7 C 97 % 1.28 C
63 04-12-2019 05:10:00 1.7 C 97 % 1.28 C
64 04-12-2019 05:15:00 1.7 C 97 % 1.28 C
65 04-12-2019 05:20:00 1.7 C 97 % 1.28 C
66 04-12-2019 05:25:00 1.7 C 97 % 1.28 C
67 04-12-2019 05:30:00 1.7 C 97 % 1.28 C
68 04-12-2019 05:35:00 1.8 C 97 % 1.38 C
69 04-12-2019 05:40:00 1.8 C 97 % 1.38 C
70 04-12-2019 05:45:00 1.8 C 97 % 1.38 C
71 04-12-2019 05:50:00 1.8 C 97 % 1.38 C
72 04-12-2019 05:55:00 1.8 C 97 % 1.38 C
73 04-12-2019 06:00:00 1.8 C 97 % 1.38 C
74 04-12-2019 06:05:00 1.8 C 97 % 1.38 C
75 04-12-2019 06:10:00 1.9 C 97 % 1.48 C
Sensor: Nr:Datum:Temp:Feuchte:Taupunkt:
Aussen-T/F 76 04-12-2019 06:15:00 1.9 C 97 % 1.48 C
77 04-12-2019 06:20:00 1.9 C 97 % 1.48 C
78 04-12-2019 06:25:00 1.9 C 97 % 1.48 C
79 04-12-2019 06:30:00 1.9 C 97 % 1.48 C
80 04-12-2019 06:35:00 1.9 C 97 % 1.48 C
81 04-12-2019 06:40:00 2 C 97 % 1.58 C
82 04-12-2019 06:45:00 2 C 97 % 1.58 C
83 04-12-2019 06:50:00 2.1 C 97 % 1.67 C
84 04-12-2019 06:55:00 2.1 C 97 % 1.67 C
85 04-12-2019 07:00:00 2 C 97 % 1.58 C
86 04-12-2019 07:05:00 1.9 C 97 % 1.48 C
87 04-12-2019 07:10:00 1.9 C 97 % 1.48 C
88 04-12-2019 07:15:00 1.9 C 97 % 1.48 C
89 04-12-2019 07:20:00 1.9 C 97 % 1.48 C
90 04-12-2019 07:25:00 1.8 C 97 % 1.38 C
91 04-12-2019 07:30:00 1.8 C 97 % 1.38 C
92 04-12-2019 07:35:00 1.8 C 97 % 1.38 C
93 04-12-2019 07:40:00 1.7 C 97 % 1.28 C
94 04-12-2019 07:45:00 1.7 C 97 % 1.28 C
95 04-12-2019 07:50:00 1.7 C 97 % 1.28 C
96 04-12-2019 07:55:00 1.7 C 97 % 1.28 C
97 04-12-2019 08:00:00 1.7 C 97 % 1.28 C
98 04-12-2019 08:05:00 1.7 C 97 % 1.28 C
99 04-12-2019 08:10:00 1.7 C 97 % 1.28 C
100 04-12-2019 08:15:00 1.7 C 97 % 1.28 C
Sensor: Nr:Datum:Temp:Feuchte:Taupunkt:
Aussen-T/F 101 04-12-2019 08:20:00 1.8 C 97 % 1.38 C
102 04-12-2019 08:25:00 1.8 C 97 % 1.38 C
103 04-12-2019 08:30:00 1.8 C 97 % 1.38 C
104 04-12-2019 08:35:00 1.7 C 97 % 1.28 C
105 04-12-2019 08:40:00 1.7 C 97 % 1.28 C
106 04-12-2019 08:45:00 1.7 C 97 % 1.28 C
107 04-12-2019 08:50:00 1.7 C 97 % 1.28 C
108 04-12-2019 08:55:00 1.7 C 97 % 1.28 C
109 04-12-2019 09:00:00 1.7 C 97 % 1.28 C
110 04-12-2019 09:05:00 1.7 C 97 % 1.28 C
111 04-12-2019 09:10:00 1.8 C 97 % 1.38 C
112 04-12-2019 09:15:00 1.8 C 97 % 1.38 C
113 04-12-2019 09:20:00 1.8 C 97 % 1.38 C
114 04-12-2019 09:25:00 1.8 C 97 % 1.38 C
115 04-12-2019 09:30:00 1.8 C 97 % 1.38 C
116 04-12-2019 09:35:00 1.8 C 97 % 1.38 C
117 04-12-2019 09:40:00 1.8 C 97 % 1.38 C
118 04-12-2019 09:45:00 1.8 C 97 % 1.38 C
119 04-12-2019 09:50:00 1.9 C 97 % 1.48 C
120 04-12-2019 09:55:00 1.9 C 97 % 1.48 C
121 04-12-2019 10:00:00 1.9 C 97 % 1.48 C
122 04-12-2019 10:05:00 1.9 C 97 % 1.48 C
123 04-12-2019 10:10:00 1.9 C 97 % 1.48 C
124 04-12-2019 10:15:00 1.9 C 97 % 1.48 C
125 04-12-2019 10:20:00 1.8 C 97 % 1.38 C
Sensor: Nr:Datum:Temp:Feuchte:Taupunkt:
Aussen-T/F 126 04-12-2019 10:25:00 1.8 C 97 % 1.38 C
127 04-12-2019 10:30:00 1.8 C 97 % 1.38 C
128 04-12-2019 10:35:00 1.8 C 97 % 1.38 C
129 04-12-2019 10:40:00 1.8 C 97 % 1.38 C
130 04-12-2019 10:45:00 1.8 C 97 % 1.38 C
131 04-12-2019 10:50:00 1.8 C 97 % 1.38 C
132 04-12-2019 10:55:00 1.8 C 97 % 1.38 C
133 04-12-2019 11:00:00 1.8 C 97 % 1.38 C
134 04-12-2019 11:05:00 1.8 C 97 % 1.38 C
135 04-12-2019 11:10:00 1.8 C 96 % 1.23 C
136 04-12-2019 11:15:00 1.8 C 97 % 1.38 C
137 04-12-2019 11:20:00 1.8 C 97 % 1.38 C
138 04-12-2019 11:25:00 1.8 C 97 % 1.38 C
139 04-12-2019 11:30:00 1.9 C 97 % 1.48 C
140 04-12-2019 11:35:00 1.9 C 97 % 1.48 C
141 04-12-2019 11:40:00 1.9 C 97 % 1.48 C
142 04-12-2019 11:45:00 1.8 C 97 % 1.38 C
143 04-12-2019 11:50:00 1.8 C 97 % 1.38 C
144 04-12-2019 11:55:00 1.9 C 97 % 1.48 C
145 04-12-2019 12:00:00 1.9 C 97 % 1.48 C
146 04-12-2019 12:05:00 1.9 C 97 % 1.48 C
147 04-12-2019 12:10:00 2 C 97 % 1.58 C
148 04-12-2019 12:15:00 2.1 C 97 % 1.67 C
149 04-12-2019 12:20:00 2.1 C 97 % 1.67 C
150 04-12-2019 12:25:00 2.1 C 97 % 1.67 C
Sensor: Nr:Datum:Temp:Feuchte:Taupunkt:
Aussen-T/F 151 04-12-2019 12:30:00 2.2 C 97 % 1.77 C
152 04-12-2019 12:35:00 2.2 C 97 % 1.77 C
153 04-12-2019 12:40:00 2.3 C 97 % 1.87 C
154 04-12-2019 12:45:00 2.3 C 97 % 1.87 C
155 04-12-2019 12:50:00 2.3 C 97 % 1.87 C
156 04-12-2019 12:55:00 2.4 C 97 % 1.97 C
157 04-12-2019 13:00:00 2.4 C 97 % 1.97 C
158 04-12-2019 13:05:00 2.4 C 97 % 1.97 C
159 04-12-2019 13:10:00 2.4 C 97 % 1.97 C
160 04-12-2019 13:15:00 2.4 C 97 % 1.97 C
161 04-12-2019 13:20:00 2.4 C 97 % 1.97 C
162 04-12-2019 13:25:00 2.5 C 97 % 2.07 C
163 04-12-2019 13:30:00 2.5 C 97 % 2.07 C
164 04-12-2019 13:35:00 2.6 C 97 % 2.17 C
165 04-12-2019 13:40:00 2.6 C 97 % 2.17 C
166 04-12-2019 13:45:00 2.6 C 97 % 2.17 C
167 04-12-2019 13:50:00 2.7 C 97 % 2.27 C
168 04-12-2019 13:55:00 2.7 C 97 % 2.27 C
169 04-12-2019 14:00:00 2.7 C 97 % 2.27 C
170 04-12-2019 14:05:00 2.8 C 97 % 2.37 C
171 04-12-2019 14:10:00 2.8 C 97 % 2.37 C
172 04-12-2019 14:15:00 2.8 C 97 % 2.37 C
173 04-12-2019 14:20:00 2.8 C 97 % 2.37 C
174 04-12-2019 14:25:00 2.8 C 97 % 2.37 C
175 04-12-2019 14:30:00 2.8 C 97 % 2.37 C
Sensor: Nr:Datum:Temp:Feuchte:Taupunkt:
Aussen-T/F 176 04-12-2019 14:35:00 2.8 C 96 % 2.23 C
177 04-12-2019 14:40:00 2.9 C 96 % 2.33 C
178 04-12-2019 14:45:00 2.9 C 96 % 2.33 C
179 04-12-2019 14:50:00 2.9 C 96 % 2.33 C
180 04-12-2019 14:55:00 2.9 C 96 % 2.33 C
181 04-12-2019 15:00:00 2.8 C 96 % 2.23 C
182 04-12-2019 15:05:00 2.8 C 96 % 2.23 C
183 04-12-2019 15:10:00 2.7 C 96 % 2.13 C
184 04-12-2019 15:15:00 2.7 C 96 % 2.13 C
185 04-12-2019 15:20:00 2.6 C 96 % 2.03 C
186 04-12-2019 15:25:00 2.6 C 96 % 2.03 C
187 04-12-2019 15:30:00 2.6 C 96 % 2.03 C
188 04-12-2019 15:35:00 2.5 C 96 % 1.93 C
189 04-12-2019 15:40:00 2.5 C 96 % 1.93 C
190 04-12-2019 15:45:00 2.4 C 96 % 1.83 C
191 04-12-2019 15:50:00 2.4 C 96 % 1.83 C
192 04-12-2019 15:55:00 2.4 C 96 % 1.83 C
193 04-12-2019 16:00:00 2.3 C 96 % 1.73 C
194 04-12-2019 16:05:00 2.3 C 96 % 1.73 C
195 04-12-2019 16:10:00 2.2 C 96 % 1.63 C
196 04-12-2019 16:15:00 2.2 C 95 % 1.48 C
197 04-12-2019 16:20:00 2.1 C 95 % 1.38 C
198 04-12-2019 16:25:00 2.1 C 95 % 1.38 C
199 04-12-2019 16:30:00 2 C 96 % 1.43 C
200 04-12-2019 16:35:00 1.9 C 96 % 1.33 C
Sensor: Nr:Datum:Temp:Feuchte:Taupunkt:
Aussen-T/F 201 04-12-2019 16:40:00 1.9 C 96 % 1.33 C
202 04-12-2019 16:45:00 1.8 C 95 % 1.09 C
203 04-12-2019 16:50:00 1.8 C 95 % 1.09 C
204 04-12-2019 16:55:00 1.7 C 95 % 0.99 C
205 04-12-2019 17:00:00 1.6 C 96 % 1.03 C
206 04-12-2019 17:05:00 1.6 C 96 % 1.03 C
207 04-12-2019 17:10:00 1.6 C 96 % 1.03 C
208 04-12-2019 17:15:00 1.5 C 96 % 0.93 C
209 04-12-2019 17:20:00 1.4 C 95 % 0.69 C
210 04-12-2019 17:25:00 1.4 C 95 % 0.69 C
211 04-12-2019 17:30:00 1.4 C 96 % 0.83 C
212 04-12-2019 17:35:00 1.4 C 96 % 0.83 C
213 04-12-2019 17:40:00 1.4 C 95 % 0.69 C
214 04-12-2019 17:45:00 1.3 C 96 % 0.73 C
215 04-12-2019 17:50:00 1.3 C 96 % 0.73 C
216 04-12-2019 17:55:00 1.3 C 96 % 0.73 C
217 04-12-2019 18:00:00 1.3 C 96 % 0.73 C
218 04-12-2019 18:05:00 1.3 C 96 % 0.73 C
219 04-12-2019 18:10:00 1.2 C 95 % 0.49 C
220 04-12-2019 18:15:00 1.2 C 96 % 0.63 C
221 04-12-2019 18:20:00 1.2 C 96 % 0.63 C
222 04-12-2019 18:25:00 1.2 C 96 % 0.63 C
223 04-12-2019 18:30:00 1.1 C 96 % 0.54 C
224 04-12-2019 18:35:00 1.1 C 96 % 0.54 C
225 04-12-2019 18:40:00 1.1 C 96 % 0.54 C
Sensor: Nr:Datum:Temp:Feuchte:Taupunkt:
Aussen-T/F 226 04-12-2019 18:45:00 0.9 C 96 % 0.34 C
227 04-12-2019 18:50:00 0.9 C 95 % 0.19 C
228 04-12-2019 18:55:00 0.8 C 95 % 0.09 C
229 04-12-2019 19:00:00 0.8 C 95 % 0.09 C
230 04-12-2019 19:05:00 0.7 C 96 % 0.14 C
231 04-12-2019 19:10:00 0.7 C 96 % 0.14 C
232 04-12-2019 19:15:00 0.6 C 95 % -0.11 C
233 04-12-2019 19:20:00 0.4 C 95 % -0.31 C
234 04-12-2019 19:25:00 0.3 C 96 % -0.26 C
235 04-12-2019 19:30:00 0.3 C 96 % -0.26 C
236 04-12-2019 19:35:00 0.3 C 96 % -0.26 C
237 04-12-2019 19:40:00 0.3 C 96 % -0.26 C
238 04-12-2019 19:45:00 0.3 C 96 % -0.26 C
239 04-12-2019 19:50:00 0.2 C 96 % -0.36 C
240 04-12-2019 19:55:00 0.1 C 96 % -0.46 C
241 04-12-2019 20:00:00 0.1 C 96 % -0.46 C
242 04-12-2019 20:05:00 0.1 C 96 % -0.46 C
243 04-12-2019 20:10:00 0.1 C 96 % -0.46 C
244 04-12-2019 20:15:00 0.1 C 96 % -0.46 C
245 04-12-2019 20:20:00 0.1 C 96 % -0.46 C
246 04-12-2019 20:25:00 0 C 96 % -0.56 C
247 04-12-2019 20:30:00 -0.1 C 96 % -0.66 C
248 04-12-2019 20:35:00 -0.2 C 96 % -0.76 C
249 04-12-2019 20:40:00 -0.2 C 96 % -0.76 C
250 04-12-2019 20:45:00 -0.3 C 96 % -0.86 C
Sensor: Nr:Datum:Temp:Feuchte:Taupunkt:
Aussen-T/F 251 04-12-2019 20:50:00 -0.3 C 96 % -0.86 C
252 04-12-2019 20:55:00 -0.4 C 96 % -0.96 C
253 04-12-2019 21:00:00 -0.5 C 96 % -1.06 C
254 04-12-2019 21:05:00 -0.5 C 96 % -1.06 C
255 04-12-2019 21:10:00 -0.5 C 96 % -1.06 C
256 04-12-2019 21:15:00 -0.4 C 96 % -0.96 C
257 04-12-2019 21:20:00 -0.4 C 96 % -0.96 C
258 04-12-2019 21:25:00 -0.4 C 96 % -0.96 C
259 04-12-2019 21:30:00 -0.5 C 96 % -1.06 C
260 04-12-2019 21:35:00 -0.6 C 96 % -1.16 C
261 04-12-2019 21:40:00 -0.7 C 96 % -1.26 C
262 04-12-2019 21:45:00 -0.8 C 96 % -1.36 C
263 04-12-2019 21:50:00 -0.8 C 96 % -1.36 C
264 04-12-2019 21:55:00 -0.9 C 96 % -1.46 C
265 04-12-2019 22:00:00 -0.9 C 96 % -1.46 C
266 04-12-2019 22:05:00 -1.1 C 96 % -1.66 C
267 04-12-2019 22:10:00 -1.1 C 96 % -1.66 C
268 04-12-2019 22:15:00 -1.1 C 96 % -1.66 C
269 04-12-2019 22:20:00 -1.1 C 96 % -1.66 C
270 04-12-2019 22:25:00 -1.2 C 96 % -1.75 C
271 04-12-2019 22:30:00 -1.3 C 96 % -1.85 C
272 04-12-2019 22:35:00 -1.4 C 96 % -1.95 C
273 04-12-2019 22:40:00 -1.4 C 96 % -1.95 C
274 04-12-2019 22:45:00 -1.4 C 96 % -1.95 C
275 04-12-2019 22:50:00 -1.4 C 96 % -1.95 C
Sensor: Nr:Datum:Temp:Feuchte:Taupunkt:
Aussen-T/F 276 04-12-2019 22:55:00 -1.4 C 96 % -1.95 C
277 04-12-2019 23:00:00 -1.4 C 96 % -1.95 C
278 04-12-2019 23:05:00 -1.4 C 96 % -1.95 C
279 04-12-2019 23:10:00 -1.4 C 96 % -1.95 C
280 04-12-2019 23:15:00 -1.5 C 96 % -2.05 C
281 04-12-2019 23:20:00 -1.6 C 96 % -2.15 C
282 04-12-2019 23:25:00 -1.5 C 96 % -2.05 C
283 04-12-2019 23:30:00 -1.5 C 96 % -2.05 C
284 04-12-2019 23:35:00 -1.5 C 96 % -2.05 C
285 04-12-2019 23:40:00 -1.6 C 96 % -2.15 C
286 04-12-2019 23:45:00 -1.7 C 96 % -2.25 C
287 04-12-2019 23:50:00 -1.7 C 96 % -2.25 C
288 04-12-2019 23:55:00 -1.7 C 96 % -2.25 C
289 05-12-2019 00:00:00 -1.8 C 96 % -2.35 C
290 05-12-2019 00:05:00 -1.8 C 96 % -2.35 C
291 05-12-2019 00:10:00 -1.8 C 96 % -2.35 C
292 05-12-2019 00:15:00 -1.8 C 96 % -2.35 C
293 05-12-2019 00:20:00 -1.8 C 96 % -2.35 C
294 05-12-2019 00:25:00 -1.8 C 96 % -2.35 C
295 05-12-2019 00:30:00 -1.8 C 96 % -2.35 C
296 05-12-2019 00:35:00 -1.7 C 96 % -2.25 C
297 05-12-2019 00:40:00 -1.7 C 96 % -2.25 C
298 05-12-2019 00:45:00 -1.7 C 96 % -2.25 C
299 05-12-2019 00:50:00 -1.8 C 96 % -2.35 C
300 05-12-2019 00:55:00 -1.8 C 96 % -2.35 C
Sensor: Nr:Datum:Temp:Feuchte:Taupunkt:
Aussen-T/F 301 05-12-2019 01:00:00 -1.8 C 96 % -2.35 C
302 05-12-2019 01:05:00 -1.8 C 96 % -2.35 C
303 05-12-2019 01:10:00 -1.9 C 96 % -2.45 C
304 05-12-2019 01:15:00 -1.9 C 96 % -2.45 C
305 05-12-2019 01:20:00 -1.9 C 96 % -2.45 C
306 05-12-2019 01:25:00 -1.8 C 97 % -2.21 C
307 05-12-2019 01:30:00 -1.8 C 97 % -2.21 C
308 05-12-2019 01:35:00 -1.7 C 97 % -2.11 C
309 05-12-2019 01:40:00 -1.7 C 97 % -2.11 C
310 05-12-2019 01:45:00 -1.7 C 97 % -2.11 C
311 05-12-2019 01:50:00 -1.7 C 97 % -2.11 C
312 05-12-2019 01:55:00 -1.7 C 97 % -2.11 C
313 05-12-2019 02:00:00 -1.7 C 97 % -2.11 C
314 05-12-2019 02:05:00 -1.7 C 97 % -2.11 C
315 05-12-2019 02:10:00 -1.7 C 97 % -2.11 C
316 05-12-2019 02:15:00 -1.7 C 97 % -2.11 C
317 05-12-2019 02:20:00 -1.8 C 97 % -2.21 C
318 05-12-2019 02:25:00 -1.8 C 97 % -2.21 C
319 05-12-2019 02:30:00 -1.9 C 97 % -2.31 C
320 05-12-2019 02:35:00 -2 C 97 % -2.41 C
321 05-12-2019 02:40:00 -2 C 97 % -2.41 C
322 05-12-2019 02:45:00 -2 C 96 % -2.55 C
323 05-12-2019 02:50:00 -2 C 96 % -2.55 C
324 05-12-2019 02:55:00 -2.1 C 96 % -2.65 C
325 05-12-2019 03:00:00 -2.1 C 96 % -2.65 C
Sensor: Nr:Datum:Temp:Feuchte:Taupunkt:
Aussen-T/F 326 05-12-2019 03:05:00 -2.2 C 96 % -2.75 C
327 05-12-2019 03:10:00 -2.3 C 96 % -2.85 C
328 05-12-2019 03:15:00 -2.4 C 96 % -2.95 C
329 05-12-2019 03:20:00 -2.3 C 96 % -2.85 C
330 05-12-2019 03:25:00 -2.3 C 96 % -2.85 C
331 05-12-2019 03:30:00 -2.2 C 97 % -2.61 C
332 05-12-2019 03:35:00 -2.2 C 97 % -2.61 C
333 05-12-2019 03:40:00 -2.2 C 97 % -2.61 C
334 05-12-2019 03:45:00 -2.2 C 97 % -2.61 C
335 05-12-2019 03:50:00 -2.2 C 97 % -2.61 C
336 05-12-2019 03:55:00 -2.1 C 97 % -2.51 C
337 05-12-2019 04:00:00 -2 C 97 % -2.41 C
338 05-12-2019 04:05:00 -1.9 C 97 % -2.31 C
339 05-12-2019 04:10:00 -1.9 C 97 % -2.31 C
340 05-12-2019 04:15:00 -1.8 C 97 % -2.21 C
341 05-12-2019 04:20:00 -1.8 C 97 % -2.21 C
342 05-12-2019 04:25:00 -1.7 C 97 % -2.11 C
343 05-12-2019 04:30:00 -1.7 C 97 % -2.11 C
344 05-12-2019 04:35:00 -1.8 C 97 % -2.21 C
345 05-12-2019 04:40:00 -1.8 C 97 % -2.21 C
346 05-12-2019 04:45:00 -1.9 C 97 % -2.31 C
347 05-12-2019 04:50:00 -1.9 C 97 % -2.31 C
348 05-12-2019 04:55:00 -1.9 C 97 % -2.31 C
349 05-12-2019 05:00:00 -1.8 C 97 % -2.21 C
350 05-12-2019 05:05:00 -1.8 C 97 % -2.21 C
Sensor: Nr:Datum:Temp:Feuchte:Taupunkt:
Aussen-T/F 351 05-12-2019 05:10:00 -1.8 C 97 % -2.21 C
352 05-12-2019 05:15:00 -1.8 C 97 % -2.21 C
353 05-12-2019 05:20:00 -1.8 C 97 % -2.21 C
354 05-12-2019 05:25:00 -1.8 C 97 % -2.21 C
355 05-12-2019 05:30:00 -1.7 C 97 % -2.11 C
356 05-12-2019 05:35:00 -1.7 C 97 % -2.11 C
357 05-12-2019 05:40:00 -1.7 C 97 % -2.11 C
358 05-12-2019 05:45:00 -1.7 C 97 % -2.11 C
359 05-12-2019 05:50:00 -1.7 C 97 % -2.11 C
360 05-12-2019 05:55:00 -1.8 C 97 % -2.21 C
361 05-12-2019 06:00:00 -1.8 C 97 % -2.21 C
362 05-12-2019 06:05:00 -1.8 C 97 % -2.21 C
363 05-12-2019 06:10:00 -1.8 C 97 % -2.21 C
364 05-12-2019 06:15:00 -1.8 C 97 % -2.21 C
365 05-12-2019 06:20:00 -1.8 C 97 % -2.21 C
366 05-12-2019 06:25:00 -1.8 C 97 % -2.21 C
367 05-12-2019 06:30:00 -1.8 C 97 % -2.21 C
368 05-12-2019 06:35:00 -1.8 C 97 % -2.21 C
369 05-12-2019 06:40:00 -1.9 C 97 % -2.31 C
370 05-12-2019 06:45:00 -1.9 C 97 % -2.31 C
371 05-12-2019 06:50:00 -1.9 C 97 % -2.31 C
372 05-12-2019 06:55:00 -1.9 C 97 % -2.31 C
373 05-12-2019 07:00:00 -1.9 C 97 % -2.31 C
374 05-12-2019 07:05:00 -1.9 C 97 % -2.31 C
375 05-12-2019 07:10:00 -1.9 C 97 % -2.31 C
Sensor: Nr:Datum:Temp:Feuchte:Taupunkt:
Aussen-T/F 376 05-12-2019 07:15:00 -2 C 97 % -2.41 C
377 05-12-2019 07:20:00 -2 C 97 % -2.41 C
378 05-12-2019 07:25:00 -2.1 C 97 % -2.51 C
379 05-12-2019 07:30:00 -2.1 C 97 % -2.51 C
380 05-12-2019 07:35:00 -2.1 C 97 % -2.51 C
381 05-12-2019 07:40:00 -2.1 C 97 % -2.51 C
382 05-12-2019 07:45:00 -2.1 C 97 % -2.51 C
383 05-12-2019 07:50:00 -2.1 C 97 % -2.51 C
384 05-12-2019 07:55:00 -2.1 C 97 % -2.51 C
385 05-12-2019 08:00:00 -2.1 C 97 % -2.51 C
386 05-12-2019 08:05:00 -2.1 C 97 % -2.51 C
387 05-12-2019 08:10:00 -2.1 C 97 % -2.51 C
388 05-12-2019 08:15:00 -2.1 C 97 % -2.51 C
389 05-12-2019 08:20:00 -2.1 C 97 % -2.51 C
390 05-12-2019 08:25:00 -2.1 C 97 % -2.51 C
391 05-12-2019 08:30:00 -2.1 C 97 % -2.51 C
392 05-12-2019 08:35:00 -2.1 C 97 % -2.51 C
393 05-12-2019 08:40:00 -2.1 C 97 % -2.51 C
394 05-12-2019 08:45:00 -2 C 97 % -2.41 C
395 05-12-2019 08:50:00 -2 C 97 % -2.41 C
396 05-12-2019 08:55:00 -2 C 97 % -2.41 C
397 05-12-2019 09:00:00 -1.9 C 97 % -2.31 C
398 05-12-2019 09:05:00 -1.9 C 97 % -2.31 C
399 05-12-2019 09:10:00 -1.8 C 97 % -2.21 C
400 05-12-2019 09:15:00 -1.8 C 97 % -2.21 C
Sensor: Nr:Datum:Temp:Feuchte:Taupunkt:
Aussen-T/F 401 05-12-2019 09:20:00 -1.8 C 97 % -2.21 C
402 05-12-2019 09:25:00 -1.8 C 97 % -2.21 C
403 05-12-2019 09:30:00 -1.8 C 97 % -2.21 C
404 05-12-2019 09:35:00 -1.8 C 97 % -2.21 C
405 05-12-2019 09:40:00 -1.8 C 97 % -2.21 C
406 05-12-2019 09:45:00 -1.8 C 97 % -2.21 C
407 05-12-2019 09:50:00 -1.8 C 97 % -2.21 C
408 05-12-2019 09:55:00 -1.8 C 97 % -2.21 C
409 05-12-2019 10:00:00 -1.8 C 97 % -2.21 C
410 05-12-2019 10:05:00 -1.7 C 97 % -2.11 C
411 05-12-2019 10:10:00 -1.7 C 97 % -2.11 C
412 05-12-2019 10:15:00 -1.7 C 97 % -2.11 C
413 05-12-2019 10:20:00 -1.7 C 97 % -2.11 C
414 05-12-2019 10:25:00 -1.7 C 97 % -2.11 C
415 05-12-2019 10:30:00 -1.6 C 97 % -2.01 C
416 05-12-2019 10:35:00 -1.5 C 97 % -1.91 C
417 05-12-2019 10:40:00 -1.5 C 97 % -1.91 C
418 05-12-2019 10:45:00 -1.4 C 97 % -1.81 C
419 05-12-2019 10:50:00 -1.3 C 97 % -1.71 C
420 05-12-2019 10:55:00 -1.3 C 97 % -1.71 C
421 05-12-2019 11:00:00 -1.3 C 97 % -1.71 C
422 05-12-2019 11:05:00 -1.2 C 97 % -1.61 C
423 05-12-2019 11:10:00 -1.2 C 97 % -1.61 C
424 05-12-2019 11:15:00 -1.1 C 97 % -1.51 C
425 05-12-2019 11:20:00 -1 C 97 % -1.41 C
Sensor: Nr:Datum:Temp:Feuchte:Taupunkt:
Aussen-T/F 426 05-12-2019 11:25:00 -0.9 C 97 % -1.32 C
427 05-12-2019 11:30:00 -0.8 C 97 % -1.22 C
428 05-12-2019 11:35:00 -0.8 C 97 % -1.22 C
429 05-12-2019 11:40:00 -0.8 C 97 % -1.22 C
430 05-12-2019 11:45:00 -0.8 C 97 % -1.22 C
431 05-12-2019 11:50:00 -0.7 C 97 % -1.12 C
432 05-12-2019 11:55:00 -0.7 C 97 % -1.12 C
433 05-12-2019 12:00:00 -0.6 C 97 % -1.02 C
434 05-12-2019 12:05:00 -0.6 C 97 % -1.02 C
435 05-12-2019 12:10:00 -0.6 C 97 % -1.02 C
436 05-12-2019 12:15:00 -0.5 C 97 % -0.92 C
437 05-12-2019 12:20:00 -0.4 C 97 % -0.82 C
438 05-12-2019 12:25:00 -0.4 C 97 % -0.82 C
439 05-12-2019 12:30:00 -0.4 C 97 % -0.82 C
440 05-12-2019 12:35:00 -0.4 C 97 % -0.82 C
441 05-12-2019 12:40:00 -0.4 C 97 % -0.82 C
442 05-12-2019 12:45:00 -0.4 C 97 % -0.82 C
443 05-12-2019 12:50:00 -0.3 C 97 % -0.72 C
444 05-12-2019 12:55:00 -0.3 C 97 % -0.72 C
445 05-12-2019 13:00:00 -0.2 C 97 % -0.62 C
446 05-12-2019 13:05:00 -0.2 C 97 % -0.62 C
447 05-12-2019 13:10:00 -0.1 C 97 % -0.52 C
448 05-12-2019 13:15:00 -0.1 C 97 % -0.52 C
449 05-12-2019 13:20:00 -0.1 C 97 % -0.52 C
450 05-12-2019 13:25:00 -0.1 C 97 % -0.52 C
Sensor: Nr:Datum:Temp:Feuchte:Taupunkt:
Aussen-T/F 451 05-12-2019 13:30:00 0 C 97 % -0.42 C
452 05-12-2019 13:35:00 0.1 C 97 % -0.32 C
453 05-12-2019 13:40:00 0.1 C 97 % -0.32 C
454 05-12-2019 13:45:00 0.1 C 97 % -0.32 C
455 05-12-2019 13:50:00 0.2 C 97 % -0.22 C
456 05-12-2019 13:55:00 0.3 C 97 % -0.12 C
457 05-12-2019 14:00:00 0.3 C 97 % -0.12 C
458 05-12-2019 14:05:00 0.4 C 97 % -0.02 C
459 05-12-2019 14:10:00 0.5 C 97 % 0.08 C
460 05-12-2019 14:15:00 0.6 C 97 % 0.18 C
461 05-12-2019 14:20:00 0.6 C 97 % 0.18 C
462 05-12-2019 14:25:00 0.6 C 97 % 0.18 C
463 05-12-2019 14:30:00 0.7 C 97 % 0.28 C
464 05-12-2019 14:35:00 0.7 C 97 % 0.28 C
465 05-12-2019 14:40:00 0.7 C 97 % 0.28 C
466 05-12-2019 14:45:00 0.7 C 97 % 0.28 C
467 05-12-2019 14:50:00 0.7 C 97 % 0.28 C
468 05-12-2019 14:55:00 0.7 C 97 % 0.28 C
469 05-12-2019 15:00:00 0.7 C 97 % 0.28 C
470 05-12-2019 15:05:00 0.7 C 97 % 0.28 C
471 05-12-2019 15:10:00 0.7 C 97 % 0.28 C
472 05-12-2019 15:15:00 0.7 C 97 % 0.28 C
473 05-12-2019 15:20:00 0.7 C 97 % 0.28 C
474 05-12-2019 15:25:00 0.7 C 97 % 0.28 C
475 05-12-2019 15:30:00 0.7 C 97 % 0.28 C
Sensor: Nr:Datum:Temp:Feuchte:Taupunkt:
Aussen-T/F 476 05-12-2019 15:35:00 0.7 C 97 % 0.28 C
477 05-12-2019 15:40:00 0.7 C 97 % 0.28 C
478 05-12-2019 15:45:00 0.6 C 97 % 0.18 C
479 05-12-2019 15:50:00 0.6 C 97 % 0.18 C
480 05-12-2019 15:55:00 0.6 C 97 % 0.18 C
481 05-12-2019 16:00:00 0.5 C 97 % 0.08 C
482 05-12-2019 16:05:00 0.5 C 97 % 0.08 C
483 05-12-2019 16:10:00 0.4 C 97 % -0.02 C
484 05-12-2019 16:15:00 0.4 C 97 % -0.02 C
485 05-12-2019 16:20:00 0.3 C 97 % -0.12 C
486 05-12-2019 16:25:00 0.3 C 97 % -0.12 C
487 05-12-2019 16:30:00 0.3 C 97 % -0.12 C
488 05-12-2019 16:35:00 0.2 C 97 % -0.22 C
489 05-12-2019 16:40:00 0.2 C 97 % -0.22 C
490 05-12-2019 16:45:00 0.2 C 97 % -0.22 C
491 05-12-2019 16:50:00 0.1 C 97 % -0.32 C
492 05-12-2019 16:55:00 0.1 C 97 % -0.32 C
493 05-12-2019 17:00:00 0.1 C 97 % -0.32 C
494 05-12-2019 17:05:00 -0.1 C 97 % -0.52 C
495 05-12-2019 17:10:00 -0.1 C 97 % -0.52 C
496 05-12-2019 17:15:00 -0.1 C 97 % -0.52 C
497 05-12-2019 17:20:00 -0.2 C 97 % -0.62 C
498 05-12-2019 17:25:00 -0.2 C 97 % -0.62 C
499 05-12-2019 17:30:00 -0.2 C 97 % -0.62 C
500 05-12-2019 17:35:00 -0.2 C 97 % -0.62 C
Sensor: Nr:Datum:Temp:Feuchte:Taupunkt:
Aussen-T/F 501 05-12-2019 17:40:00 -0.3 C 97 % -0.72 C
502 05-12-2019 17:45:00 -0.4 C 97 % -0.82 C
503 05-12-2019 17:50:00 -0.5 C 97 % -0.92 C
504 05-12-2019 17:55:00 -0.5 C 97 % -0.92 C
505 05-12-2019 18:00:00 -0.5 C 97 % -0.92 C
506 05-12-2019 18:05:00 -0.6 C 97 % -1.02 C
507 05-12-2019 18:10:00 -0.6 C 97 % -1.02 C
508 05-12-2019 18:15:00 -0.7 C 97 % -1.12 C
509 05-12-2019 18:20:00 -0.7 C 97 % -1.12 C
510 05-12-2019 18:25:00 -0.8 C 97 % -1.22 C
511 05-12-2019 18:30:00 -0.8 C 97 % -1.22 C
512 05-12-2019 18:35:00 -0.9 C 97 % -1.32 C
513 05-12-2019 18:40:00 -0.9 C 97 % -1.32 C
514 05-12-2019 18:45:00 -1.1 C 97 % -1.51 C
515 05-12-2019 18:50:00 -1.1 C 97 % -1.51 C
516 05-12-2019 18:55:00 -1.2 C 97 % -1.61 C
517 05-12-2019 19:00:00 -1.2 C 97 % -1.61 C
518 05-12-2019 19:05:00 -1.2 C 97 % -1.61 C
519 05-12-2019 19:10:00 -1.1 C 97 % -1.51 C
520 05-12-2019 19:15:00 -1.1 C 97 % -1.51 C
521 05-12-2019 19:20:00 -1.1 C 97 % -1.51 C
522 05-12-2019 19:25:00 -1.2 C 97 % -1.61 C
523 05-12-2019 19:30:00 -1.3 C 97 % -1.71 C
524 05-12-2019 19:35:00 -1.4 C 97 % -1.81 C
525 05-12-2019 19:40:00 -1.5 C 97 % -1.91 C
Sensor: Nr:Datum:Temp:Feuchte:Taupunkt:
Aussen-T/F 526 05-12-2019 19:45:00 -1.5 C 97 % -1.91 C
527 05-12-2019 19:50:00 -1.3 C 97 % -1.71 C
528 05-12-2019 19:55:00 -1.2 C 97 % -1.61 C
529 05-12-2019 20:00:00 -0.9 C 97 % -1.32 C
530 05-12-2019 20:05:00 -0.7 C 97 % -1.12 C
531 05-12-2019 20:10:00 -0.6 C 98 % -0.88 C
532 05-12-2019 20:15:00 -0.5 C 98 % -0.78 C
533 05-12-2019 20:20:00 -0.4 C 97 % -0.82 C
534 05-12-2019 20:25:00 -0.4 C 97 % -0.82 C
535 05-12-2019 20:30:00 -0.5 C 97 % -0.92 C
536 05-12-2019 20:35:00 -0.6 C 97 % -1.02 C
537 05-12-2019 20:40:00 -0.7 C 97 % -1.12 C
538 05-12-2019 20:45:00 -0.8 C 97 % -1.22 C
539 05-12-2019 20:50:00 -0.9 C 97 % -1.32 C
540 05-12-2019 20:55:00 -0.9 C 97 % -1.32 C
541 05-12-2019 21:00:00 -1 C 97 % -1.41 C
542 05-12-2019 21:05:00 -1.1 C 97 % -1.51 C
543 05-12-2019 21:10:00 -1.2 C 97 % -1.61 C
544 05-12-2019 21:15:00 -1.3 C 97 % -1.71 C
545 05-12-2019 21:20:00 -1.3 C 97 % -1.71 C
546 05-12-2019 21:25:00 -1.2 C 97 % -1.61 C
547 05-12-2019 21:30:00 -1.2 C 97 % -1.61 C
548 05-12-2019 21:35:00 -1.1 C 97 % -1.51 C
549 05-12-2019 21:40:00 -1.1 C 97 % -1.51 C
550 05-12-2019 21:45:00 -1.1 C 97 % -1.51 C
Sensor: Nr:Datum:Temp:Feuchte:Taupunkt:
Aussen-T/F 551 05-12-2019 21:50:00 -1.2 C 97 % -1.61 C
552 05-12-2019 21:55:00 -1.2 C 97 % -1.61 C
553 05-12-2019 22:00:00 -1.2 C 97 % -1.61 C
554 05-12-2019 22:05:00 -1.2 C 97 % -1.61 C
555 05-12-2019 22:10:00 -1.3 C 97 % -1.71 C
556 05-12-2019 22:15:00 -1.3 C 97 % -1.71 C
557 05-12-2019 22:20:00 -1.3 C 97 % -1.71 C
558 05-12-2019 22:25:00 -1.3 C 97 % -1.71 C
559 05-12-2019 22:30:00 -1.4 C 97 % -1.81 C
560 05-12-2019 22:35:00 -1.4 C 97 % -1.81 C
561 05-12-2019 22:40:00 -1.5 C 97 % -1.91 C
562 05-12-2019 22:45:00 -1.6 C 97 % -2.01 C
563 05-12-2019 22:50:00 -1.6 C 97 % -2.01 C
564 05-12-2019 22:55:00 -1.6 C 97 % -2.01 C
565 05-12-2019 23:00:00 -1.6 C 97 % -2.01 C
566 05-12-2019 23:05:00 -1.6 C 97 % -2.01 C
567 05-12-2019 23:10:00 -1.6 C 97 % -2.01 C
568 05-12-2019 23:15:00 -1.6 C 97 % -2.01 C
569 05-12-2019 23:20:00 -1.7 C 97 % -2.11 C
570 05-12-2019 23:25:00 -1.7 C 97 % -2.11 C
571 05-12-2019 23:30:00 -1.8 C 97 % -2.21 C
572 05-12-2019 23:35:00 -1.9 C 97 % -2.31 C
573 05-12-2019 23:40:00 -2 C 97 % -2.41 C
574 05-12-2019 23:45:00 -2.1 C 97 % -2.51 C
575 05-12-2019 23:50:00 -2.1 C 97 % -2.51 C
Sensor: Nr:Datum:Temp:Feuchte:Taupunkt:
Aussen-T/F 576 05-12-2019 23:55:00 -2.2 C 97 % -2.61 C

Legende:
   Min
   Max


Maximal/Minimal-Werte vom 04.12.2019 - 05.12.2019

Sensor Min Max Avg
Temp
(Aussen-T/F)
-2.4 °C
05-12-2019  03:15:00
3.2 °C
04-12-2019  00:00:00
0.09 °C
Feuchte
(Aussen-T/F)
95 %
04-12-2019  00:00:00
98 %
05-12-2019  20:10:00
96.64 %
Taupunkt
(Aussen-T/F)
-2.95 C
05-12-2019  03:15:00
2.63 C
04-12-2019  00:05:00
-0.37 C

Die Daten stammen von einer Davis Vantage Pro 2 Wetter-Station und werden unter Linux mit der Software wview2wettercgi und aufbereitet. Alle Angaben erfolgen ohne Gewähr für ihre Vollständigkeit oder Richtigkeit.
Kontakt: Rainer Krienke krienke@uni-koblenz.de . Meine Webseiten an der Uni Koblenz oder privat.
Version: $Revision: 0.78 $